sensor_id;sensor_type;location;lat;lon;timestamp;temperature;humidity
19090;DHT22;9677;50.656;13.064;2023-10-13T00:01:05;19.80;59.10
19090;DHT22;9677;50.656;13.064;2023-10-13T00:03:35;19.80;59.10
19090;DHT22;9677;50.656;13.064;2023-10-13T00:06:04;19.80;59.10
19090;DHT22;9677;50.656;13.064;2023-10-13T00:08:33;19.80;59.10
19090;DHT22;9677;50.656;13.064;2023-10-13T00:11:05;19.80;59.10
19090;DHT22;9677;50.656;13.064;2023-10-13T00:13:36;19.80;59.20
19090;DHT22;9677;50.656;13.064;2023-10-13T00:16:10;19.80;59.20
19090;DHT22;9677;50.656;13.064;2023-10-13T00:18:44;19.80;59.20
19090;DHT22;9677;50.656;13.064;2023-10-13T00:21:13;19.80;59.10
19090;DHT22;9677;50.656;13.064;2023-10-13T00:23:43;19.80;59.10
19090;DHT22;9677;50.656;13.064;2023-10-13T00:26:21;19.80;59.20
19090;DHT22;9677;50.656;13.064;2023-10-13T00:28:58;19.80;59.20
19090;DHT22;9677;50.656;13.064;2023-10-13T00:31:36;19.80;59.20
19090;DHT22;9677;50.656;13.064;2023-10-13T00:34:08;19.90;59.30
19090;DHT22;9677;50.656;13.064;2023-10-13T00:36:40;19.80;59.20
19090;DHT22;9677;50.656;13.064;2023-10-13T00:39:15;19.70;59.20
19090;DHT22;9677;50.656;13.064;2023-10-13T00:41:45;19.70;59.20
19090;DHT22;9677;50.656;13.064;2023-10-13T00:44:24;19.80;59.30
19090;DHT22;9677;50.656;13.064;2023-10-13T00:46:55;19.80;59.30
19090;DHT22;9677;50.656;13.064;2023-10-13T00:49:24;19.80;59.30
19090;DHT22;9677;50.656;13.064;2023-10-13T00:51:52;19.80;59.20
19090;DHT22;9677;50.656;13.064;2023-10-13T00:54:22;19.80;59.20
19090;DHT22;9677;50.656;13.064;2023-10-13T00:56:55;19.70;59.20
19090;DHT22;9677;50.656;13.064;2023-10-13T00:59:31;19.80;59.30
19090;DHT22;9677;50.656;13.064;2023-10-13T01:02:03;19.70;59.20
19090;DHT22;9677;50.656;13.064;2023-10-13T01:04:51;19.80;59.30
19090;DHT22;9677;50.656;13.064;2023-10-13T01:07:21;19.80;59.30
19090;DHT22;9677;50.656;13.064;2023-10-13T01:09:51;19.80;59.30
19090;DHT22;9677;50.656;13.064;2023-10-13T01:12:20;19.80;59.30
19090;DHT22;9677;50.656;13.064;2023-10-13T01:14:50;19.80;59.30
19090;DHT22;9677;50.656;13.064;2023-10-13T01:17:18;19.80;59.30
19090;DHT22;9677;50.656;13.064;2023-10-13T01:19:50;19.90;59.40
19090;DHT22;9677;50.656;13.064;2023-10-13T01:22:19;19.80;59.20
19090;DHT22;9677;50.656;13.064;2023-10-13T01:24:49;19.90;59.30
19090;DHT22;9677;50.656;13.064;2023-10-13T01:27:18;19.80;59.20
19090;DHT22;9677;50.656;13.064;2023-10-13T01:29:48;19.90;59.30
19090;DHT22;9677;50.656;13.064;2023-10-13T01:32:19;19.80;59.20
19090;DHT22;9677;50.656;13.064;2023-10-13T01:34:48;19.80;59.20
19090;DHT22;9677;50.656;13.064;2023-10-13T01:37:16;19.90;59.30
19090;DHT22;9677;50.656;13.064;2023-10-13T01:39:46;19.90;59.30
19090;DHT22;9677;50.656;13.064;2023-10-13T01:42:16;19.90;59.20
19090;DHT22;9677;50.656;13.064;2023-10-13T01:44:48;19.80;59.20
19090;DHT22;9677;50.656;13.064;2023-10-13T01:47:15;19.90;59.30
19090;DHT22;9677;50.656;13.064;2023-10-13T01:49:44;19.90;59.30
19090;DHT22;9677;50.656;13.064;2023-10-13T01:52:15;19.90;59.30
19090;DHT22;9677;50.656;13.064;2023-10-13T01:54:44;19.90;59.30
19090;DHT22;9677;50.656;13.064;2023-10-13T01:57:13;19.90;59.30
19090;DHT22;9677;50.656;13.064;2023-10-13T01:59:43;19.90;59.20
19090;DHT22;9677;50.656;13.064;2023-10-13T02:02:11;19.90;59.30
19090;DHT22;9677;50.656;13.064;2023-10-13T02:04:39;19.90;59.20
19090;DHT22;9677;50.656;13.064;2023-10-13T02:07:09;19.90;59.20
19090;DHT22;9677;50.656;13.064;2023-10-13T02:09:41;19.90;59.20
19090;DHT22;9677;50.656;13.064;2023-10-13T02:12:10;19.90;59.20
19090;DHT22;9677;50.656;13.064;2023-10-13T02:14:37;20.00;59.20
19090;DHT22;9677;50.656;13.064;2023-10-13T02:17:07;20.00;59.20
19090;DHT22;9677;50.656;13.064;2023-10-13T02:19:40;19.90;59.20
19090;DHT22;9677;50.656;13.064;2023-10-13T02:22:12;20.00;59.20
19090;DHT22;9677;50.656;13.064;2023-10-13T02:24:51;20.00;59.20
19090;DHT22;9677;50.656;13.064;2023-10-13T02:27:19;19.90;59.10
19090;DHT22;9677;50.656;13.064;2023-10-13T02:29:50;20.00;59.10
19090;DHT22;9677;50.656;13.064;2023-10-13T02:32:26;19.90;59.10
19090;DHT22;9677;50.656;13.064;2023-10-13T02:34:56;20.00;59.20
19090;DHT22;9677;50.656;13.064;2023-10-13T02:37:33;19.90;59.20
19090;DHT22;9677;50.656;13.064;2023-10-13T02:40:02;19.90;59.20
19090;DHT22;9677;50.656;13.064;2023-10-13T02:42:32;19.90;59.20
19090;DHT22;9677;50.656;13.064;2023-10-13T02:45:00;19.90;59.30
19090;DHT22;9677;50.656;13.064;2023-10-13T02:47:31;19.90;59.20
19090;DHT22;9677;50.656;13.064;2023-10-13T02:49:59;19.90;59.30
19090;DHT22;9677;50.656;13.064;2023-10-13T02:52:38;19.90;59.30
19090;DHT22;9677;50.656;13.064;2023-10-13T02:55:08;19.90;59.30
19090;DHT22;9677;50.656;13.064;2023-10-13T02:57:41;19.90;59.30
19090;DHT22;9677;50.656;13.064;2023-10-13T03:00:08;19.90;59.30
19090;DHT22;9677;50.656;13.064;2023-10-13T03:02:45;19.90;59.30
19090;DHT22;9677;50.656;13.064;2023-10-13T03:05:22;19.90;59.30
19090;DHT22;9677;50.656;13.064;2023-10-13T03:07:51;19.90;59.30
19090;DHT22;9677;50.656;13.064;2023-10-13T03:10:18;19.90;59.30
19090;DHT22;9677;50.656;13.064;2023-10-13T03:12:48;19.90;59.30
19090;DHT22;9677;50.656;13.064;2023-10-13T03:15:15;19.90;59.30
19090;DHT22;9677;50.656;13.064;2023-10-13T03:17:46;19.90;59.30
19090;DHT22;9677;50.656;13.064;2023-10-13T03:20:15;19.80;59.30
19090;DHT22;9677;50.656;13.064;2023-10-13T03:22:53;19.90;59.30
19090;DHT22;9677;50.656;13.064;2023-10-13T03:25:20;19.80;59.30
19090;DHT22;9677;50.656;13.064;2023-10-13T03:27:52;19.80;59.80
19090;DHT22;9677;50.656;13.064;2023-10-13T03:30:32;19.90;59.30
19090;DHT22;9677;50.656;13.064;2023-10-13T03:33:05;19.80;59.30
19090;DHT22;9677;50.656;13.064;2023-10-13T03:35:39;19.80;59.40
19090;DHT22;9677;50.656;13.064;2023-10-13T03:38:10;19.80;59.30
19090;DHT22;9677;50.656;13.064;2023-10-13T03:40:45;19.80;59.40
19090;DHT22;9677;50.656;13.064;2023-10-13T03:43:22;19.90;59.40
19090;DHT22;9677;50.656;13.064;2023-10-13T03:45:51;19.80;59.30
19090;DHT22;9677;50.656;13.064;2023-10-13T03:48:29;19.80;59.40
19090;DHT22;9677;50.656;13.064;2023-10-13T03:50:59;19.80;59.40
19090;DHT22;9677;50.656;13.064;2023-10-13T03:53:35;19.80;59.40
19090;DHT22;9677;50.656;13.064;2023-10-13T03:56:16;19.80;59.50
19090;DHT22;9677;50.656;13.064;2023-10-13T03:58:59;19.70;59.40
19090;DHT22;9677;50.656;13.064;2023-10-13T04:01:30;19.80;59.50
19090;DHT22;9677;50.656;13.064;2023-10-13T04:04:01;19.80;59.40
19090;DHT22;9677;50.656;13.064;2023-10-13T04:06:39;19.80;59.40
19090;DHT22;9677;50.656;13.064;2023-10-13T04:09:20;19.80;59.40
19090;DHT22;9677;50.656;13.064;2023-10-13T04:12:07;19.70;59.30
19090;DHT22;9677;50.656;13.064;2023-10-13T04:15:05;19.70;59.40
19090;DHT22;9677;50.656;13.064;2023-10-13T04:17:48;19.70;59.40
19090;DHT22;9677;50.656;13.064;2023-10-13T04:20:19;19.70;59.40
19090;DHT22;9677;50.656;13.064;2023-10-13T04:23:05;19.70;59.50
19090;DHT22;9677;50.656;13.064;2023-10-13T04:25:45;19.60;59.40
19090;DHT22;9677;50.656;13.064;2023-10-13T04:28:31;19.60;59.50
19090;DHT22;9677;50.656;13.064;2023-10-13T04:31:04;19.60;59.50
19090;DHT22;9677;50.656;13.064;2023-10-13T04:33:39;19.60;59.60
19090;DHT22;9677;50.656;13.064;2023-10-13T04:36:21;19.60;59.60
19090;DHT22;9677;50.656;13.064;2023-10-13T04:39:03;19.50;59.70
19090;DHT22;9677;50.656;13.064;2023-10-13T04:41:40;19.50;59.70
19090;DHT22;9677;50.656;13.064;2023-10-13T04:44:13;19.50;59.70
19090;DHT22;9677;50.656;13.064;2023-10-13T04:47:11;19.50;59.80
19090;DHT22;9677;50.656;13.064;2023-10-13T04:49:45;19.50;59.70
19090;DHT22;9677;50.656;13.064;2023-10-13T04:52:21;19.50;59.80
19090;DHT22;9677;50.656;13.064;2023-10-13T04:55:28;19.40;59.70
19090;DHT22;9677;50.656;13.064;2023-10-13T04:58:26;19.40;59.70
19090;DHT22;9677;50.656;13.064;2023-10-13T05:01:08;19.40;59.70
19090;DHT22;9677;50.656;13.064;2023-10-13T05:04:25;19.40;59.70
19090;DHT22;9677;50.656;13.064;2023-10-13T05:07:05;19.40;59.80
19090;DHT22;9677;50.656;13.064;2023-10-13T05:09:51;19.40;59.80
19090;DHT22;9677;50.656;13.064;2023-10-13T05:12:37;19.40;59.80
19090;DHT22;9677;50.656;13.064;2023-10-13T05:15:23;19.30;59.80
19090;DHT22;9677;50.656;13.064;2023-10-13T05:18:09;19.30;59.90
19090;DHT22;9677;50.656;13.064;2023-10-13T05:20:56;19.30;60.00
19090;DHT22;9677;50.656;13.064;2023-10-13T05:23:42;19.30;60.00
19090;DHT22;9677;50.656;13.064;2023-10-13T05:26:28;19.30;60.10
19090;DHT22;9677;50.656;13.064;2023-10-13T05:29:19;19.30;60.10
19090;DHT22;9677;50.656;13.064;2023-10-13T05:32:05;19.20;60.10
19090;DHT22;9677;50.656;13.064;2023-10-13T05:34:51;19.30;60.20
19090;DHT22;9677;50.656;13.064;2023-10-13T05:37:38;19.30;60.20
19090;DHT22;9677;50.656;13.064;2023-10-13T05:40:24;19.20;60.20
19090;DHT22;9677;50.656;13.064;2023-10-13T05:43:10;19.30;60.30
19090;DHT22;9677;50.656;13.064;2023-10-13T05:46:01;19.20;60.40
19090;DHT22;9677;50.656;13.064;2023-10-13T05:48:45;19.30;60.50
19090;DHT22;9677;50.656;13.064;2023-10-13T05:51:51;19.30;60.40
19090;DHT22;9677;50.656;13.064;2023-10-13T05:54:33;19.30;60.40
19090;DHT22;9677;50.656;13.064;2023-10-13T05:57:19;19.30;60.40
19090;DHT22;9677;50.656;13.064;2023-10-13T06:00:06;19.30;60.40
19090;DHT22;9677;50.656;13.064;2023-10-13T06:02:52;19.30;60.40
19090;DHT22;9677;50.656;13.064;2023-10-13T06:05:38;19.30;60.40
19090;DHT22;9677;50.656;13.064;2023-10-13T06:08:25;19.30;60.50
19090;DHT22;9677;50.656;13.064;2023-10-13T06:11:11;19.30;60.60
19090;DHT22;9677;50.656;13.064;2023-10-13T06:13:57;19.30;60.60
19090;DHT22;9677;50.656;13.064;2023-10-13T06:16:43;19.30;60.70
19090;DHT22;9677;50.656;13.064;2023-10-13T06:19:29;19.30;60.80
19090;DHT22;9677;50.656;13.064;2023-10-13T06:22:15;19.30;60.80
19090;DHT22;9677;50.656;13.064;2023-10-13T06:25:02;19.30;60.80
19090;DHT22;9677;50.656;13.064;2023-10-13T06:27:49;19.30;60.90
19090;DHT22;9677;50.656;13.064;2023-10-13T06:30:34;19.30;60.80
19090;DHT22;9677;50.656;13.064;2023-10-13T06:33:03;19.40;60.90
19090;DHT22;9677;50.656;13.064;2023-10-13T06:35:32;19.40;61.00
19090;DHT22;9677;50.656;13.064;2023-10-13T06:38:01;19.40;60.90
19090;DHT22;9677;50.656;13.064;2023-10-13T06:40:30;19.40;61.00
19090;DHT22;9677;50.656;13.064;2023-10-13T06:43:01;19.40;61.00
19090;DHT22;9677;50.656;13.064;2023-10-13T06:45:46;19.40;61.00
19090;DHT22;9677;50.656;13.064;2023-10-13T06:48:24;19.50;61.10
19090;DHT22;9677;50.656;13.064;2023-10-13T06:50:53;19.50;61.00
19090;DHT22;9677;50.656;13.064;2023-10-13T06:53:22;19.50;61.10
19090;DHT22;9677;50.656;13.064;2023-10-13T06:55:53;19.50;61.10
19090;DHT22;9677;50.656;13.064;2023-10-13T06:58:25;19.60;61.20
19090;DHT22;9677;50.656;13.064;2023-10-13T07:00:56;19.60;61.20
19090;DHT22;9677;50.656;13.064;2023-10-13T07:03:26;19.60;61.30
19090;DHT22;9677;50.656;13.064;2023-10-13T07:05:54;19.60;61.30
19090;DHT22;9677;50.656;13.064;2023-10-13T07:08:26;19.70;61.30
19090;DHT22;9677;50.656;13.064;2023-10-13T07:10:59;19.70;61.30
19090;DHT22;9677;50.656;13.064;2023-10-13T07:13:32;19.70;61.30
19090;DHT22;9677;50.656;13.064;2023-10-13T07:16:04;19.80;61.40
19090;DHT22;9677;50.656;13.064;2023-10-13T07:18:54;19.80;61.40
19090;DHT22;9677;50.656;13.064;2023-10-13T07:21:23;19.90;61.40
19090;DHT22;9677;50.656;13.064;2023-10-13T07:23:58;19.90;61.20
19090;DHT22;9677;50.656;13.064;2023-10-13T07:26:37;20.00;61.30
19090;DHT22;9677;50.656;13.064;2023-10-13T07:29:11;20.00;61.30
19090;DHT22;9677;50.656;13.064;2023-10-13T07:31:40;20.00;61.30
19090;DHT22;9677;50.656;13.064;2023-10-13T07:34:12;20.00;61.20
19090;DHT22;9677;50.656;13.064;2023-10-13T07:36:53;20.10;61.30
19090;DHT22;9677;50.656;13.064;2023-10-13T07:39:28;20.10;61.40
19090;DHT22;9677;50.656;13.064;2023-10-13T07:42:04;20.20;61.40
19090;DHT22;9677;50.656;13.064;2023-10-13T07:44:36;20.30;61.40
19090;DHT22;9677;50.656;13.064;2023-10-13T07:47:12;20.30;61.40
19090;DHT22;9677;50.656;13.064;2023-10-13T07:49:44;20.30;61.20
19090;DHT22;9677;50.656;13.064;2023-10-13T07:52:18;20.40;61.30
19090;DHT22;9677;50.656;13.064;2023-10-13T07:55:04;20.40;61.20
19090;DHT22;9677;50.656;13.064;2023-10-13T07:57:49;20.50;61.20
19090;DHT22;9677;50.656;13.064;2023-10-13T08:00:26;20.60;61.20
19090;DHT22;9677;50.656;13.064;2023-10-13T08:03:05;20.60;61.10
19090;DHT22;9677;50.656;13.064;2023-10-13T08:05:52;20.70;61.10
19090;DHT22;9677;50.656;13.064;2023-10-13T08:08:24;20.90;61.40
19090;DHT22;9677;50.656;13.064;2023-10-13T08:11:02;20.70;61.10
19090;DHT22;9677;50.656;13.064;2023-10-13T08:13:39;20.80;61.20
19090;DHT22;9677;50.656;13.064;2023-10-13T08:16:29;20.80;61.20
19090;DHT22;9677;50.656;13.064;2023-10-13T08:19:12;20.90;61.10
19090;DHT22;9677;50.656;13.064;2023-10-13T08:21:43;20.90;61.10
19090;DHT22;9677;50.656;13.064;2023-10-13T08:24:19;21.00;61.10
19090;DHT22;9677;50.656;13.064;2023-10-13T08:26:55;21.00;60.90
19090;DHT22;9677;50.656;13.064;2023-10-13T08:29:43;21.30;61.10
19090;DHT22;9677;50.656;13.064;2023-10-13T08:32:32;21.10;60.90
19090;DHT22;9677;50.656;13.064;2023-10-13T08:35:21;21.20;60.90
19090;DHT22;9677;50.656;13.064;2023-10-13T08:38:03;21.30;60.80
19090;DHT22;9677;50.656;13.064;2023-10-13T08:40:58;21.30;60.80
19090;DHT22;9677;50.656;13.064;2023-10-13T08:43:46;21.40;60.70
19090;DHT22;9677;50.656;13.064;2023-10-13T08:46:21;21.50;60.60
19090;DHT22;9677;50.656;13.064;2023-10-13T08:48:58;22.30;60.90
19090;DHT22;9677;50.656;13.064;2023-10-13T08:51:42;21.50;60.30
19090;DHT22;9677;50.656;13.064;2023-10-13T08:54:13;21.60;60.30
19090;DHT22;9677;50.656;13.064;2023-10-13T08:57:02;21.60;60.20
19090;DHT22;9677;50.656;13.064;2023-10-13T09:00:00;21.60;60.10
19090;DHT22;9677;50.656;13.064;2023-10-13T09:02:44;21.90;60.00
19090;DHT22;9677;50.656;13.064;2023-10-13T09:05:26;21.70;59.90
19090;DHT22;9677;50.656;13.064;2023-10-13T09:08:08;21.70;59.90
19090;DHT22;9677;50.656;13.064;2023-10-13T09:10:37;21.70;59.80
19090;DHT22;9677;50.656;13.064;2023-10-13T09:13:16;22.10;60.00
19090;DHT22;9677;50.656;13.064;2023-10-13T09:15:48;21.90;59.80
19090;DHT22;9677;50.656;13.064;2023-10-13T09:18:30;21.80;59.70
19090;DHT22;9677;50.656;13.064;2023-10-13T09:21:10;21.80;59.60
19090;DHT22;9677;50.656;13.064;2023-10-13T09:23:54;21.90;59.60
19090;DHT22;9677;50.656;13.064;2023-10-13T09:26:43;21.90;59.50
19090;DHT22;9677;50.656;13.064;2023-10-13T09:29:15;21.90;59.50
19090;DHT22;9677;50.656;13.064;2023-10-13T09:31:59;21.90;59.50
19090;DHT22;9677;50.656;13.064;2023-10-13T09:34:31;21.90;59.40
19090;DHT22;9677;50.656;13.064;2023-10-13T09:37:02;22.00;59.50
19090;DHT22;9677;50.656;13.064;2023-10-13T09:39:38;22.00;59.40
19090;DHT22;9677;50.656;13.064;2023-10-13T09:42:12;22.00;59.30
19090;DHT22;9677;50.656;13.064;2023-10-13T09:44:45;22.10;59.50
19090;DHT22;9677;50.656;13.064;2023-10-13T09:47:23;22.10;60.00
19090;DHT22;9677;50.656;13.064;2023-10-13T09:50:01;22.10;59.30
19090;DHT22;9677;50.656;13.064;2023-10-13T09:52:32;22.20;59.20
19090;DHT22;9677;50.656;13.064;2023-10-13T09:55:09;22.20;59.20
19090;DHT22;9677;50.656;13.064;2023-10-13T09:57:45;22.20;59.20
19090;DHT22;9677;50.656;13.064;2023-10-13T10:00:27;22.20;59.10
19090;DHT22;9677;50.656;13.064;2023-10-13T10:03:13;22.30;59.10
19090;DHT22;9677;50.656;13.064;2023-10-13T10:06:01;22.70;59.20
19090;DHT22;9677;50.656;13.064;2023-10-13T10:08:43;22.30;58.90
19090;DHT22;9677;50.656;13.064;2023-10-13T10:11:36;23.00;59.20
19090;DHT22;9677;50.656;13.064;2023-10-13T10:14:41;22.40;58.70
19090;DHT22;9677;50.656;13.064;2023-10-13T10:17:14;22.40;58.60
19090;DHT22;9677;50.656;13.064;2023-10-13T10:19:47;22.60;58.80
19090;DHT22;9677;50.656;13.064;2023-10-13T10:22:26;22.50;58.70
19090;DHT22;9677;50.656;13.064;2023-10-13T10:24:58;22.50;58.60
19090;DHT22;9677;50.656;13.064;2023-10-13T10:27:28;22.50;58.70
19090;DHT22;9677;50.656;13.064;2023-10-13T10:29:58;22.50;58.70
19090;DHT22;9677;50.656;13.064;2023-10-13T10:32:35;22.80;58.70
19090;DHT22;9677;50.656;13.064;2023-10-13T10:35:05;22.80;58.60
19090;DHT22;9677;50.656;13.064;2023-10-13T10:37:45;22.60;58.40
19090;DHT22;9677;50.656;13.064;2023-10-13T10:40:16;22.70;58.30
19090;DHT22;9677;50.656;13.064;2023-10-13T10:43:38;22.60;58.20
19090;DHT22;9677;50.656;13.064;2023-10-13T10:46:11;22.60;58.10
19090;DHT22;9677;50.656;13.064;2023-10-13T10:48:44;22.70;58.30
19090;DHT22;9677;50.656;13.064;2023-10-13T10:51:13;23.30;58.60
19090;DHT22;9677;50.656;13.064;2023-10-13T10:53:48;22.80;58.30
19090;DHT22;9677;50.656;13.064;2023-10-13T10:56:18;22.80;58.20
19090;DHT22;9677;50.656;13.064;2023-10-13T10:59:06;22.80;58.20
19090;DHT22;9677;50.656;13.064;2023-10-13T11:01:43;23.10;58.30
19090;DHT22;9677;50.656;13.064;2023-10-13T11:04:15;23.00;58.10
19090;DHT22;9677;50.656;13.064;2023-10-13T11:06:47;23.00;58.00
19090;DHT22;9677;50.656;13.064;2023-10-13T11:09:24;23.00;58.00
19090;DHT22;9677;50.656;13.064;2023-10-13T11:12:10;23.00;57.80
19090;DHT22;9677;50.656;13.064;2023-10-13T11:14:45;23.00;57.70
19090;DHT22;9677;50.656;13.064;2023-10-13T11:17:20;23.10;57.70
19090;DHT22;9677;50.656;13.064;2023-10-13T11:19:52;23.20;57.60
19090;DHT22;9677;50.656;13.064;2023-10-13T11:22:22;23.20;58.10
19090;DHT22;9677;50.656;13.064;2023-10-13T11:25:00;23.30;57.50
19090;DHT22;9677;50.656;13.064;2023-10-13T11:27:36;23.20;57.30
19090;DHT22;9677;50.656;13.064;2023-10-13T11:30:26;23.30;57.20
19090;DHT22;9677;50.656;13.064;2023-10-13T11:33:08;23.30;56.90
19090;DHT22;9677;50.656;13.064;2023-10-13T11:35:38;23.30;56.80
19090;DHT22;9677;50.656;13.064;2023-10-13T11:38:26;23.40;56.90
19090;DHT22;9677;50.656;13.064;2023-10-13T11:40:57;23.70;56.90
19090;DHT22;9677;50.656;13.064;2023-10-13T11:43:45;23.50;56.80
19090;DHT22;9677;50.656;13.064;2023-10-13T11:46:40;23.40;56.80
19090;DHT22;9677;50.656;13.064;2023-10-13T11:49:24;23.70;56.80
19090;DHT22;9677;50.656;13.064;2023-10-13T11:52:07;23.50;56.70
19090;DHT22;9677;50.656;13.064;2023-10-13T11:54:45;23.60;56.80
19090;DHT22;9677;50.656;13.064;2023-10-13T11:57:15;23.60;56.70
19090;DHT22;9677;50.656;13.064;2023-10-13T11:59:46;23.70;56.80
19090;DHT22;9677;50.656;13.064;2023-10-13T12:02:24;23.80;56.70
19090;DHT22;9677;50.656;13.064;2023-10-13T12:05:10;23.90;56.40
19090;DHT22;9677;50.656;13.064;2023-10-13T12:07:44;24.10;56.60
19090;DHT22;9677;50.656;13.064;2023-10-13T12:10:16;24.00;56.50
19090;DHT22;9677;50.656;13.064;2023-10-13T12:13:01;24.10;56.30
19090;DHT22;9677;50.656;13.064;2023-10-13T12:15:35;24.40;56.30
19090;DHT22;9677;50.656;13.064;2023-10-13T12:18:19;24.30;56.10
19090;DHT22;9677;50.656;13.064;2023-10-13T12:20:50;24.40;55.80
19090;DHT22;9677;50.656;13.064;2023-10-13T12:23:18;24.50;55.60
19090;DHT22;9677;50.656;13.064;2023-10-13T12:25:57;24.60;55.60
19090;DHT22;9677;50.656;13.064;2023-10-13T12:28:27;24.50;55.40
19090;DHT22;9677;50.656;13.064;2023-10-13T12:30:56;24.70;55.30
19090;DHT22;9677;50.656;13.064;2023-10-13T12:33:32;24.90;55.10
19090;DHT22;9677;50.656;13.064;2023-10-13T12:36:05;24.80;54.90
19090;DHT22;9677;50.656;13.064;2023-10-13T12:38:57;24.90;54.80
19090;DHT22;9677;50.656;13.064;2023-10-13T12:41:43;25.00;54.80
19090;DHT22;9677;50.656;13.064;2023-10-13T12:44:29;25.00;54.60
19090;DHT22;9677;50.656;13.064;2023-10-13T12:47:16;25.00;54.50
19090;DHT22;9677;50.656;13.064;2023-10-13T12:50:04;25.20;54.40
19090;DHT22;9677;50.656;13.064;2023-10-13T12:52:41;25.30;54.00
19090;DHT22;9677;50.656;13.064;2023-10-13T12:55:12;25.30;53.90
19090;DHT22;9677;50.656;13.064;2023-10-13T12:57:46;25.40;53.70
19090;DHT22;9677;50.656;13.064;2023-10-13T13:00:15;25.30;53.60
19090;DHT22;9677;50.656;13.064;2023-10-13T13:02:52;25.50;53.30
19090;DHT22;9677;50.656;13.064;2023-10-13T13:05:24;25.50;53.40
19090;DHT22;9677;50.656;13.064;2023-10-13T13:07:57;25.40;53.10
19090;DHT22;9677;50.656;13.064;2023-10-13T13:10:26;26.10;53.60
19090;DHT22;9677;50.656;13.064;2023-10-13T13:13:03;25.70;53.30
19090;DHT22;9677;50.656;13.064;2023-10-13T13:15:32;25.80;53.10
19090;DHT22;9677;50.656;13.064;2023-10-13T13:18:01;25.90;52.90
19090;DHT22;9677;50.656;13.064;2023-10-13T13:20:39;26.00;52.80
19090;DHT22;9677;50.656;13.064;2023-10-13T13:23:20;26.00;52.30
19090;DHT22;9677;50.656;13.064;2023-10-13T13:25:52;25.90;52.20
19090;DHT22;9677;50.656;13.064;2023-10-13T13:28:21;26.00;51.50
19090;DHT22;9677;50.656;13.064;2023-10-13T13:30:51;25.90;51.70
19090;DHT22;9677;50.656;13.064;2023-10-13T13:33:21;26.00;51.80
19090;DHT22;9677;50.656;13.064;2023-10-13T13:35:57;26.00;51.60
19090;DHT22;9677;50.656;13.064;2023-10-13T13:38:27;26.00;51.00
19090;DHT22;9677;50.656;13.064;2023-10-13T13:40:58;26.00;51.60
19090;DHT22;9677;50.656;13.064;2023-10-13T13:43:29;26.00;51.50
19090;DHT22;9677;50.656;13.064;2023-10-13T13:46:06;26.00;51.40
19090;DHT22;9677;50.656;13.064;2023-10-13T13:48:38;26.00;51.30
19090;DHT22;9677;50.656;13.064;2023-10-13T13:51:09;26.00;51.20
19090;DHT22;9677;50.656;13.064;2023-10-13T13:53:43;26.00;50.80
19090;DHT22;9677;50.656;13.064;2023-10-13T13:56:15;26.10;51.10
19090;DHT22;9677;50.656;13.064;2023-10-13T13:58:46;26.10;50.80
19090;DHT22;9677;50.656;13.064;2023-10-13T14:01:15;26.10;50.90
19090;DHT22;9677;50.656;13.064;2023-10-13T14:03:46;26.10;50.80
19090;DHT22;9677;50.656;13.064;2023-10-13T14:06:20;26.10;50.40
19090;DHT22;9677;50.656;13.064;2023-10-13T14:08:51;26.10;50.20
19090;DHT22;9677;50.656;13.064;2023-10-13T14:11:24;26.10;50.30
19090;DHT22;9677;50.656;13.064;2023-10-13T14:14:12;26.10;50.20
19090;DHT22;9677;50.656;13.064;2023-10-13T14:16:56;26.40;50.10
19090;DHT22;9677;50.656;13.064;2023-10-13T14:19:30;26.10;49.70
19090;DHT22;9677;50.656;13.064;2023-10-13T14:22:01;26.10;49.70
19090;DHT22;9677;50.656;13.064;2023-10-13T14:24:34;26.10;49.60
19090;DHT22;9677;50.656;13.064;2023-10-13T14:27:10;26.10;49.70
19090;DHT22;9677;50.656;13.064;2023-10-13T14:29:42;26.20;49.50
19090;DHT22;9677;50.656;13.064;2023-10-13T14:32:12;26.30;49.70
19090;DHT22;9677;50.656;13.064;2023-10-13T14:34:43;26.10;49.50
19090;DHT22;9677;50.656;13.064;2023-10-13T14:37:14;26.10;49.60
19090;DHT22;9677;50.656;13.064;2023-10-13T14:39:53;26.10;49.80
19090;DHT22;9677;50.656;13.064;2023-10-13T14:42:24;26.10;49.50
19090;DHT22;9677;50.656;13.064;2023-10-13T14:44:53;26.30;49.30
19090;DHT22;9677;50.656;13.064;2023-10-13T14:47:25;26.10;49.20
19090;DHT22;9677;50.656;13.064;2023-10-13T14:49:54;26.10;49.30
19090;DHT22;9677;50.656;13.064;2023-10-13T14:52:28;26.10;49.10
19090;DHT22;9677;50.656;13.064;2023-10-13T14:54:59;26.10;49.00
19090;DHT22;9677;50.656;13.064;2023-10-13T14:57:28;26.10;48.90
19090;DHT22;9677;50.656;13.064;2023-10-13T14:59:56;26.00;48.60
19090;DHT22;9677;50.656;13.064;2023-10-13T15:02:24;26.00;48.90
19090;DHT22;9677;50.656;13.064;2023-10-13T15:04:53;26.00;48.80
19090;DHT22;9677;50.656;13.064;2023-10-13T15:07:21;26.50;49.10
19090;DHT22;9677;50.656;13.064;2023-10-13T15:09:56;25.90;48.80
19090;DHT22;9677;50.656;13.064;2023-10-13T15:12:24;25.90;48.90
19090;DHT22;9677;50.656;13.064;2023-10-13T15:14:55;25.90;49.00
19090;DHT22;9677;50.656;13.064;2023-10-13T15:17:26;25.80;49.20
19090;DHT22;9677;50.656;13.064;2023-10-13T15:19:55;25.80;49.00
19090;DHT22;9677;50.656;13.064;2023-10-13T15:22:23;25.90;49.10
19090;DHT22;9677;50.656;13.064;2023-10-13T15:24:56;26.00;49.10
19090;DHT22;9677;50.656;13.064;2023-10-13T15:27:36;25.90;49.00
19090;DHT22;9677;50.656;13.064;2023-10-13T15:30:09;25.80;48.90
19090;DHT22;9677;50.656;13.064;2023-10-13T15:32:47;25.80;48.80
19090;DHT22;9677;50.656;13.064;2023-10-13T15:35:17;25.80;48.60
19090;DHT22;9677;50.656;13.064;2023-10-13T15:37:45;25.80;48.70
19090;DHT22;9677;50.656;13.064;2023-10-13T15:40:16;25.80;48.60
19090;DHT22;9677;50.656;13.064;2023-10-13T15:42:45;26.20;48.80
19090;DHT22;9677;50.656;13.064;2023-10-13T15:45:14;25.80;48.60
19090;DHT22;9677;50.656;13.064;2023-10-13T15:47:45;25.70;48.40
19090;DHT22;9677;50.656;13.064;2023-10-13T15:50:36;25.70;48.40
19090;DHT22;9677;50.656;13.064;2023-10-13T15:53:08;25.70;48.30
19090;DHT22;9677;50.656;13.064;2023-10-13T15:55:41;25.70;48.20
19090;DHT22;9677;50.656;13.064;2023-10-13T15:58:13;26.40;48.60
19090;DHT22;9677;50.656;13.064;2023-10-13T16:00:42;25.60;48.10
19090;DHT22;9677;50.656;13.064;2023-10-13T16:03:12;26.00;48.40
19090;DHT22;9677;50.656;13.064;2023-10-13T16:05:40;25.60;48.20
19090;DHT22;9677;50.656;13.064;2023-10-13T16:08:10;25.60;48.30
19090;DHT22;9677;50.656;13.064;2023-10-13T16:10:41;25.50;48.00
19090;DHT22;9677;50.656;13.064;2023-10-13T16:13:09;25.50;47.80
19090;DHT22;9677;50.656;13.064;2023-10-13T16:15:43;25.50;48.10
19090;DHT22;9677;50.656;13.064;2023-10-13T16:18:14;25.40;48.10
19090;DHT22;9677;50.656;13.064;2023-10-13T16:20:49;25.40;48.10
19090;DHT22;9677;50.656;13.064;2023-10-13T16:23:18;25.60;48.10
19090;DHT22;9677;50.656;13.064;2023-10-13T16:25:48;25.30;47.80